createdAt,value
2023-01-26T00:01:21.412Z,100.00
2023-01-26T00:03:49.153Z,100.00
2023-01-26T00:06:20.575Z,100.00
2023-01-26T00:08:53.502Z,100.00
2023-01-26T00:11:24.846Z,100.00
2023-01-26T00:13:51.910Z,100.00
2023-01-26T00:16:19.484Z,100.00
2023-01-26T00:18:46.808Z,100.00
2023-01-26T00:21:17.722Z,100.00
2023-01-26T00:23:45.512Z,100.00
2023-01-26T00:26:17.459Z,100.00
2023-01-26T00:28:45.033Z,100.00
2023-01-26T00:31:22.431Z,100.00
2023-01-26T00:33:49.852Z,100.00
2023-01-26T00:36:16.675Z,100.00
2023-01-26T00:38:43.546Z,100.00
2023-01-26T00:41:30.896Z,100.00
2023-01-26T00:43:58.064Z,100.00
2023-01-26T00:46:25.004Z,100.00
2023-01-26T00:48:52.096Z,100.00
2023-01-26T00:51:18.961Z,100.00
2023-01-26T00:53:45.768Z,100.00
2023-01-26T00:56:14.850Z,100.00
2023-01-26T00:58:42.388Z,100.00
2023-01-26T01:01:09.594Z,100.00
2023-01-26T01:03:36.439Z,100.00
2023-01-26T01:06:03.377Z,100.00
2023-01-26T01:08:30.128Z,100.00
2023-01-26T01:11:06.322Z,100.00
2023-01-26T01:13:33.430Z,100.00
2023-01-26T01:16:00.319Z,100.00
2023-01-26T01:18:27.191Z,100.00
2023-01-26T01:20:53.959Z,100.00
2023-01-26T01:23:20.810Z,100.00
2023-01-26T01:25:47.789Z,100.00
2023-01-26T01:28:14.729Z,100.00
2023-01-26T01:30:41.573Z,100.00
2023-01-26T01:33:08.458Z,100.00
2023-01-26T01:35:35.966Z,100.00
2023-01-26T01:38:02.874Z,100.00
2023-01-26T01:40:29.760Z,100.00
2023-01-26T01:42:56.562Z,100.00
2023-01-26T01:45:26.220Z,100.00
2023-01-26T01:48:04.141Z,100.00
2023-01-26T01:50:39.541Z,100.00
2023-01-26T01:53:13.829Z,100.00
2023-01-26T01:55:42.278Z,100.00
2023-01-26T01:58:09.775Z,100.00
2023-01-26T02:00:36.591Z,100.00
2023-01-26T02:03:15.182Z,100.00
2023-01-26T02:06:23.784Z,100.00
2023-01-26T02:08:56.418Z,100.00
2023-01-26T02:11:32.262Z,100.00
2023-01-26T02:14:01.244Z,100.00
2023-01-26T02:16:28.265Z,100.00
2023-01-26T02:18:55.084Z,100.00
2023-01-26T02:21:24.357Z,100.00
2023-01-26T02:24:03.691Z,100.00
2023-01-26T02:26:34.574Z,100.00
2023-01-26T02:29:04.193Z,100.00
2023-01-26T02:31:31.603Z,100.00
2023-01-26T02:33:58.465Z,100.00
2023-01-26T02:36:27.633Z,100.00
2023-01-26T02:39:22.516Z,100.00
2023-01-26T02:42:10.003Z,100.00
2023-01-26T02:44:39.391Z,100.00
2023-01-26T02:47:15.469Z,100.00
2023-01-26T02:49:50.546Z,100.00
2023-01-26T02:52:27.878Z,100.00
2023-01-26T02:55:14.625Z,100.00
2023-01-26T02:57:42.175Z,100.00
2023-01-26T03:00:24.491Z,100.00
2023-01-26T03:02:54.135Z,100.00
2023-01-26T03:05:21.158Z,100.00
2023-01-26T03:07:48.441Z,100.00
2023-01-26T03:10:18.556Z,100.00
2023-01-26T03:12:46.440Z,100.00
2023-01-26T03:15:31.525Z,100.00
2023-01-26T03:18:36.226Z,100.00
2023-01-26T03:21:28.061Z,100.00
2023-01-26T03:24:13.781Z,100.00
2023-01-26T03:26:59.239Z,100.00
2023-01-26T03:29:27.102Z,100.00
2023-01-26T03:31:54.452Z,100.00
2023-01-26T03:34:21.896Z,100.00
2023-01-26T03:36:49.587Z,100.00
2023-01-26T03:39:34.971Z,100.00
2023-01-26T03:42:20.803Z,100.00
2023-01-26T03:45:06.038Z,100.00
2023-01-26T03:47:53.650Z,100.00
2023-01-26T03:50:39.431Z,100.00
2023-01-26T03:53:36.186Z,100.00
2023-01-26T03:56:22.076Z,100.00
2023-01-26T03:58:54.429Z,100.00
2023-01-26T04:01:28.314Z,100.00
2023-01-26T04:04:16.542Z,100.00
2023-01-26T04:07:05.005Z,100.00
2023-01-26T04:09:36.876Z,100.00
2023-01-26T04:12:04.740Z,100.00
2023-01-26T04:14:50.815Z,100.00
2023-01-26T04:17:37.776Z,100.00
2023-01-26T04:20:25.072Z,100.00
2023-01-26T04:22:52.435Z,100.00
2023-01-26T04:25:22.018Z,100.00
2023-01-26T04:27:48.832Z,100.00
2023-01-26T04:30:17.540Z,100.00
2023-01-26T04:32:46.370Z,100.00
2023-01-26T04:35:13.738Z,100.00
2023-01-26T04:37:40.848Z,100.00
2023-01-26T04:40:09.377Z,100.00
2023-01-26T04:42:36.523Z,100.00
2023-01-26T04:45:03.993Z,100.00
2023-01-26T04:47:30.848Z,100.00
2023-01-26T04:49:58.034Z,100.00
2023-01-26T04:52:24.825Z,100.00
2023-01-26T04:54:51.618Z,100.00
2023-01-26T04:57:21.261Z,100.00
2023-01-26T04:59:48.021Z,100.00
2023-01-26T05:02:15.263Z,100.00
2023-01-26T05:04:42.116Z,100.00
2023-01-26T05:07:09.063Z,100.00
2023-01-26T05:09:35.928Z,100.00
2023-01-26T05:12:22.867Z,100.00
2023-01-26T05:14:49.629Z,100.00
2023-01-26T05:17:16.388Z,100.00
2023-01-26T05:19:43.554Z,100.00
2023-01-26T05:22:12.422Z,100.00
2023-01-26T05:24:39.615Z,100.00
2023-01-26T05:27:21.527Z,100.00
2023-01-26T05:29:50.105Z,100.00
2023-01-26T05:32:17.897Z,100.00
2023-01-26T05:34:46.098Z,100.00
2023-01-26T05:37:14.943Z,100.00
2023-01-26T05:39:42.372Z,100.00
2023-01-26T05:42:09.355Z,100.00
2023-01-26T05:44:36.177Z,100.00
2023-01-26T05:47:03.118Z,100.00
2023-01-26T05:49:29.987Z,100.00
2023-01-26T05:51:57.166Z,100.00
2023-01-26T05:54:23.981Z,100.00
2023-01-26T05:56:53.428Z,100.00
2023-01-26T05:59:20.230Z,100.00
2023-01-26T06:01:47.036Z,100.00
2023-01-26T06:04:14.073Z,100.00
2023-01-26T06:06:40.984Z,100.00
2023-01-26T06:09:07.774Z,100.00
2023-01-26T06:11:34.866Z,100.00
2023-01-26T06:14:01.669Z,100.00
2023-01-26T06:16:28.708Z,100.00
2023-01-26T06:18:55.952Z,100.00
2023-01-26T06:21:22.733Z,100.00
2023-01-26T06:23:49.537Z,100.00
2023-01-26T06:26:16.384Z,100.00
2023-01-26T06:28:43.349Z,100.00
2023-01-26T06:31:11.004Z,100.00
2023-01-26T06:33:39.008Z,100.00
2023-01-26T06:36:10.185Z,100.00
2023-01-26T06:38:37.699Z,100.00
2023-01-26T06:41:07.587Z,100.00
2023-01-26T06:43:35.988Z,100.00
2023-01-26T06:46:04.773Z,100.00
2023-01-26T06:48:34.740Z,100.00
2023-01-26T06:51:21.711Z,100.00
2023-01-26T06:53:56.759Z,100.00
2023-01-26T06:56:25.066Z,100.00
2023-01-26T06:58:52.208Z,100.00
2023-01-26T07:01:21.246Z,100.00
2023-01-26T07:03:49.615Z,100.00
2023-01-26T07:06:16.572Z,100.00
2023-01-26T07:08:43.753Z,100.00
2023-01-26T07:11:11.708Z,100.00
2023-01-26T07:13:39.387Z,100.00
2023-01-26T07:16:10.717Z,100.00
2023-01-26T07:18:38.458Z,100.00
2023-01-26T07:21:09.128Z,100.00
2023-01-26T07:23:36.182Z,100.00
2023-01-26T07:26:03.211Z,100.00
2023-01-26T07:28:30.776Z,100.00
2023-01-26T07:30:58.883Z,100.00
2023-01-26T07:33:25.925Z,100.00
2023-01-26T07:35:54.225Z,100.00
2023-01-26T07:38:21.210Z,100.00
2023-01-26T07:40:48.290Z,100.00
2023-01-26T07:43:17.899Z,100.00
2023-01-26T07:45:51.682Z,100.00
2023-01-26T07:48:20.964Z,100.00
2023-01-26T07:50:48.708Z,100.00
2023-01-26T07:53:19.586Z,100.00
2023-01-26T07:55:47.352Z,100.00
2023-01-26T07:58:14.465Z,100.00
2023-01-26T08:00:41.575Z,100.00
2023-01-26T08:03:08.430Z,100.00
2023-01-26T08:05:37.160Z,100.00
2023-01-26T08:08:04.610Z,100.00
2023-01-26T08:10:32.127Z,100.00
2023-01-26T08:13:02.473Z,100.00
2023-01-26T08:15:29.609Z,100.00
2023-01-26T08:17:56.691Z,100.00
2023-01-26T08:20:23.903Z,100.00
2023-01-26T08:22:50.741Z,100.00
2023-01-26T08:25:17.578Z,100.00
2023-01-26T08:27:44.328Z,100.00
2023-01-26T08:30:12.868Z,100.00
2023-01-26T08:32:39.976Z,100.00
2023-01-26T08:35:07.693Z,100.00
2023-01-26T08:37:34.614Z,100.00
2023-01-26T08:40:01.367Z,100.00
2023-01-26T08:42:28.320Z,100.00
2023-01-26T08:44:55.264Z,100.00
2023-01-26T08:47:22.089Z,100.00
2023-01-26T08:49:48.816Z,100.00
2023-01-26T08:52:16.828Z,100.00
2023-01-26T08:54:43.644Z,100.00
2023-01-26T08:57:10.581Z,100.00
2023-01-26T08:59:37.360Z,100.00
2023-01-26T09:02:04.248Z,100.00
2023-01-26T09:04:31.108Z,100.00
2023-01-26T09:06:57.877Z,100.00
2023-01-26T09:09:24.957Z,100.00
2023-01-26T09:11:55.985Z,100.00
2023-01-26T09:14:24.107Z,100.00
2023-01-26T09:16:51.002Z,100.00
2023-01-26T09:19:17.821Z,100.00
2023-01-26T09:21:44.779Z,100.00
2023-01-26T09:24:11.770Z,100.00
2023-01-26T09:26:38.963Z,100.00
2023-01-26T09:29:05.808Z,100.00
2023-01-26T09:31:32.715Z,100.00
2023-01-26T09:33:59.910Z,100.00
2023-01-26T09:36:26.772Z,100.00
2023-01-26T09:38:54.248Z,100.00
2023-01-26T09:41:45.128Z,100.00
2023-01-26T09:44:20.661Z,100.00
2023-01-26T09:47:01.385Z,100.00
2023-01-26T09:50:01.373Z,100.00
2023-01-26T09:52:36.892Z,100.00
2023-01-26T09:55:16.200Z,100.00
2023-01-26T09:58:05.436Z,100.00
2023-01-26T10:00:35.387Z,100.00
2023-01-26T10:03:39.935Z,100.00
2023-01-26T10:06:29.674Z,100.00
2023-01-26T10:09:01.638Z,100.00
2023-01-26T10:11:43.705Z,100.00
2023-01-26T10:14:21.942Z,100.00
2023-01-26T10:16:51.872Z,100.00
2023-01-26T10:20:10.162Z,100.00
2023-01-26T10:22:45.745Z,100.00
2023-01-26T10:25:21.977Z,100.00
2023-01-26T10:27:49.702Z,100.00
2023-01-26T10:30:18.613Z,100.00
2023-01-26T10:32:50.934Z,100.00
2023-01-26T10:35:22.426Z,100.00
2023-01-26T10:37:49.984Z,100.00
2023-01-26T10:40:17.802Z,100.00
2023-01-26T10:42:57.849Z,100.00
2023-01-26T10:45:31.471Z,100.00
2023-01-26T10:48:16.471Z,100.00
2023-01-26T10:50:44.500Z,100.00
2023-01-26T10:53:29.867Z,100.00
2023-01-26T10:56:15.022Z,100.00
2023-01-26T10:58:50.335Z,100.00
2023-01-26T11:01:18.963Z,100.00
2023-01-26T11:04:06.940Z,100.00
2023-01-26T11:06:35.562Z,100.00
2023-01-26T11:09:19.752Z,100.00
2023-01-26T11:12:05.999Z,100.00
2023-01-26T11:14:35.009Z,100.00
2023-01-26T11:17:15.391Z,100.00
2023-01-26T11:20:01.981Z,100.00
2023-01-26T11:22:36.957Z,100.00
2023-01-26T11:25:43.510Z,100.00
2023-01-26T11:28:44.204Z,100.00
2023-01-26T11:31:31.509Z,100.00
2023-01-26T11:34:23.516Z,100.00
2023-01-26T11:37:15.553Z,100.00
2023-01-26T11:39:45.140Z,100.00
2023-01-26T11:43:01.707Z,100.00
2023-01-26T11:45:38.551Z,100.00
2023-01-26T11:48:22.850Z,100.00
2023-01-26T11:51:05.661Z,100.00
2023-01-26T11:53:57.828Z,100.00
2023-01-26T11:57:00.036Z,100.00
2023-01-26T12:00:29.595Z,100.00
2023-01-26T12:03:06.441Z,100.00
2023-01-26T12:05:56.400Z,100.00
2023-01-26T12:08:42.085Z,100.00
2023-01-26T12:11:30.223Z,99.71
2023-01-26T12:14:02.917Z,99.74
2023-01-26T12:16:49.178Z,99.63
2023-01-26T12:19:40.796Z,98.93
2023-01-26T12:22:26.842Z,99.46
2023-01-26T12:25:24.675Z,99.13
2023-01-26T12:28:02.288Z,98.69
2023-01-26T12:30:37.108Z,98.84
2023-01-26T12:33:04.074Z,98.08
2023-01-26T12:36:08.631Z,96.22
2023-01-26T12:39:31.584Z,96.17
2023-01-26T12:42:04.051Z,94.61
2023-01-26T12:44:38.202Z,93.56
2023-01-26T12:47:15.427Z,93.26
2023-01-26T12:50:43.712Z,92.67
2023-01-26T12:53:31.631Z,92.23
2023-01-26T12:56:10.527Z,93.15
2023-01-26T12:58:45.500Z,92.77
2023-01-26T13:01:20.379Z,92.89
2023-01-26T13:04:05.082Z,92.91
2023-01-26T13:06:32.084Z,93.11
2023-01-26T13:09:23.773Z,93.37
2023-01-26T13:11:57.215Z,93.29
2023-01-26T13:14:25.273Z,93.95
2023-01-26T13:16:52.441Z,93.37
2023-01-26T13:19:44.854Z,93.46
2023-01-26T13:22:24.041Z,92.81
2023-01-26T13:25:14.921Z,92.49
2023-01-26T13:27:55.778Z,92.59
2023-01-26T13:30:22.760Z,92.79
2023-01-26T13:32:49.559Z,93.12
2023-01-26T13:35:23.680Z,93.20
2023-01-26T13:37:58.453Z,92.22
2023-01-26T13:40:38.358Z,92.31
2023-01-26T13:43:27.928Z,92.50
2023-01-26T13:46:22.466Z,92.27
2023-01-26T13:48:54.471Z,92.92
2023-01-26T13:51:28.549Z,92.98
2023-01-26T13:54:04.581Z,93.41
2023-01-26T13:56:35.183Z,94.07
2023-01-26T13:59:07.421Z,93.96
2023-01-26T14:01:37.185Z,94.23
2023-01-26T14:04:09.653Z,94.24
2023-01-26T14:06:38.664Z,94.19
2023-01-26T14:09:11.973Z,93.97
2023-01-26T14:11:38.973Z,93.50
2023-01-26T14:14:06.817Z,93.49
2023-01-26T14:16:36.707Z,93.61
2023-01-26T14:19:16.466Z,93.12
2023-01-26T14:22:00.297Z,93.29
2023-01-26T14:24:31.878Z,93.11
2023-01-26T14:26:59.023Z,92.96
2023-01-26T14:29:29.183Z,92.66
2023-01-26T14:32:00.448Z,92.18
2023-01-26T14:34:30.798Z,92.60
2023-01-26T14:37:15.801Z,91.88
2023-01-26T14:39:45.056Z,91.43
2023-01-26T14:42:18.029Z,92.04
2023-01-26T14:44:45.406Z,91.91
2023-01-26T14:47:30.420Z,92.16
2023-01-26T14:50:04.021Z,91.70
2023-01-26T14:52:35.835Z,91.88
2023-01-26T14:55:23.210Z,92.61
2023-01-26T14:57:52.167Z,92.26
2023-01-26T15:00:27.487Z,92.87
2023-01-26T15:02:58.149Z,92.38
2023-01-26T15:05:35.426Z,92.83
2023-01-26T15:08:19.734Z,92.36
2023-01-26T15:11:22.531Z,92.77
2023-01-26T15:13:55.412Z,92.97
2023-01-26T15:16:26.649Z,92.94
2023-01-26T15:19:03.086Z,92.34
2023-01-26T15:21:40.717Z,91.67
2023-01-26T15:24:15.140Z,92.11
2023-01-26T15:26:43.072Z,92.05
2023-01-26T15:29:36.312Z,91.85
2023-01-26T15:32:03.229Z,91.82
2023-01-26T15:34:36.427Z,92.04
2023-01-26T15:37:32.838Z,92.33
2023-01-26T15:39:59.922Z,92.50
2023-01-26T15:42:30.322Z,92.85
2023-01-26T15:44:57.691Z,92.94
2023-01-26T15:47:24.562Z,93.20
2023-01-26T15:49:51.586Z,92.81
2023-01-26T15:52:26.044Z,93.12
2023-01-26T15:54:54.333Z,93.09
2023-01-26T15:57:21.769Z,93.17
2023-01-26T15:59:48.583Z,93.30
2023-01-26T16:02:18.636Z,93.22
2023-01-26T16:04:45.941Z,93.31
2023-01-26T16:07:15.885Z,93.15
2023-01-26T16:09:43.170Z,93.01
2023-01-26T16:12:25.893Z,92.99
2023-01-26T16:14:58.134Z,93.16
2023-01-26T16:17:25.004Z,92.56
2023-01-26T16:19:51.935Z,92.47
2023-01-26T16:22:18.917Z,92.79
2023-01-26T16:24:46.955Z,92.35
2023-01-26T16:27:13.836Z,92.45
2023-01-26T16:29:40.809Z,91.90
2023-01-26T16:32:28.426Z,92.25
2023-01-26T16:34:55.259Z,92.50
2023-01-26T16:37:22.063Z,92.46
2023-01-26T16:39:48.822Z,92.58
2023-01-26T16:42:19.508Z,92.68
2023-01-26T16:44:46.663Z,92.82
2023-01-26T16:47:13.655Z,93.04
2023-01-26T16:49:40.461Z,92.74
2023-01-26T16:52:10.116Z,93.21
2023-01-26T16:54:36.966Z,92.72
2023-01-26T16:57:04.152Z,93.05
2023-01-26T16:59:30.963Z,92.79
2023-01-26T17:01:58.026Z,93.09
2023-01-26T17:04:25.074Z,92.99
2023-01-26T17:06:51.895Z,93.36
2023-01-26T17:09:18.799Z,93.20
2023-01-26T17:11:45.717Z,93.51
2023-01-26T17:14:13.256Z,93.25
2023-01-26T17:16:40.340Z,93.56
2023-01-26T17:19:09.100Z,93.61
2023-01-26T17:21:36.381Z,93.94
2023-01-26T17:24:03.506Z,94.20
2023-01-26T17:26:30.323Z,94.49
2023-01-26T17:28:57.321Z,94.75
2023-01-26T17:31:25.168Z,94.75
2023-01-26T17:33:52.436Z,94.78
2023-01-26T17:36:19.814Z,94.88
2023-01-26T17:38:48.570Z,94.98
2023-01-26T17:41:16.511Z,94.90
2023-01-26T17:43:43.360Z,95.10
2023-01-26T17:46:14.228Z,95.17
2023-01-26T17:48:44.859Z,95.00
2023-01-26T17:51:18.729Z,95.11
2023-01-26T17:53:48.201Z,95.02
2023-01-26T17:56:19.359Z,95.14
2023-01-26T17:58:55.794Z,95.34
2023-01-26T18:01:25.277Z,95.46
2023-01-26T18:03:53.827Z,95.87
2023-01-26T18:06:21.187Z,95.34
2023-01-26T18:08:48.667Z,95.73
2023-01-26T18:11:16.737Z,95.41
2023-01-26T18:13:44.698Z,95.46
2023-01-26T18:16:17.896Z,95.85
2023-01-26T18:18:45.812Z,95.68
2023-01-26T18:21:22.873Z,95.62
2023-01-26T18:23:53.794Z,95.99
2023-01-26T18:26:23.688Z,95.69
2023-01-26T18:28:50.883Z,95.12
2023-01-26T18:31:30.558Z,95.02
2023-01-26T18:33:59.476Z,95.45
2023-01-26T18:36:27.923Z,94.75
2023-01-26T18:39:06.141Z,95.32
2023-01-26T18:41:34.124Z,95.08
2023-01-26T18:44:03.893Z,95.26
2023-01-26T18:46:33.399Z,95.41
2023-01-26T18:49:03.763Z,94.87
2023-01-26T18:51:34.729Z,95.29
2023-01-26T18:54:04.357Z,95.16
2023-01-26T18:56:31.649Z,95.51
2023-01-26T18:58:58.967Z,95.45
2023-01-26T19:01:26.561Z,95.46
2023-01-26T19:03:57.811Z,95.37
2023-01-26T19:06:26.288Z,95.60
2023-01-26T19:09:01.036Z,95.53
2023-01-26T19:11:32.268Z,95.48
2023-01-26T19:14:00.660Z,95.99
2023-01-26T19:16:29.769Z,95.50
2023-01-26T19:18:56.787Z,95.71
2023-01-26T19:21:25.193Z,95.58
2023-01-26T19:23:54.514Z,95.74
2023-01-26T19:26:29.671Z,95.76
2023-01-26T19:28:57.033Z,95.71
2023-01-26T19:31:26.604Z,95.61
2023-01-26T19:33:56.837Z,95.09
2023-01-26T19:36:25.099Z,95.14
2023-01-26T19:38:52.389Z,95.43
2023-01-26T19:41:20.805Z,95.36
2023-01-26T19:43:48.833Z,95.45
2023-01-26T19:46:16.639Z,95.37
2023-01-26T19:48:44.739Z,95.56
2023-01-26T19:51:15.531Z,95.85
2023-01-26T19:53:46.169Z,96.08
2023-01-26T19:56:26.124Z,96.22
2023-01-26T19:58:56.480Z,96.22
2023-01-26T20:01:25.405Z,95.99
2023-01-26T20:03:59.296Z,96.19
2023-01-26T20:06:29.525Z,96.06
2023-01-26T20:08:57.071Z,96.15
2023-01-26T20:11:25.359Z,96.17
2023-01-26T20:14:11.698Z,96.12
2023-01-26T20:16:38.865Z,96.37
2023-01-26T20:19:06.424Z,96.38
2023-01-26T20:21:34.213Z,95.97
2023-01-26T20:24:05.778Z,96.31
2023-01-26T20:26:34.470Z,96.42
2023-01-26T20:29:01.469Z,96.71
2023-01-26T20:31:28.363Z,96.72
2023-01-26T20:33:55.872Z,96.88
2023-01-26T20:36:27.494Z,96.40
2023-01-26T20:38:54.921Z,97.20
2023-01-26T20:41:27.396Z,97.08
2023-01-26T20:44:00.366Z,96.98
2023-01-26T20:46:37.742Z,97.06
2023-01-26T20:49:08.889Z,96.98
2023-01-26T20:51:38.388Z,97.19
2023-01-26T20:54:07.411Z,97.41
2023-01-26T20:56:35.872Z,97.66
2023-01-26T20:59:04.637Z,97.85
2023-01-26T21:01:34.006Z,97.48
2023-01-26T21:04:02.367Z,97.76
2023-01-26T21:06:30.400Z,98.12
2023-01-26T21:09:00.129Z,98.01
2023-01-26T21:11:30.863Z,97.67
2023-01-26T21:14:01.873Z,97.84
2023-01-26T21:16:30.872Z,97.80
2023-01-26T21:18:57.792Z,97.94
2023-01-26T21:21:25.606Z,97.73
2023-01-26T21:23:52.609Z,97.83
2023-01-26T21:26:25.543Z,97.80
2023-01-26T21:28:55.209Z,97.73
2023-01-26T21:31:25.592Z,97.61
2023-01-26T21:33:53.244Z,97.61
2023-01-26T21:36:27.154Z,97.74
2023-01-26T21:38:57.095Z,97.41
2023-01-26T21:41:49.448Z,97.47
2023-01-26T21:44:20.229Z,97.19
2023-01-26T21:46:50.870Z,97.06
2023-01-26T21:49:18.278Z,97.23
2023-01-26T21:52:04.209Z,97.30
2023-01-26T21:54:31.920Z,97.02
2023-01-26T21:56:59.415Z,96.93
2023-01-26T21:59:26.491Z,97.04
2023-01-26T22:01:56.205Z,96.84
2023-01-26T22:04:30.162Z,96.40
2023-01-26T22:06:57.402Z,96.68
2023-01-26T22:09:24.964Z,96.65
2023-01-26T22:11:52.224Z,96.63
2023-01-26T22:14:26.163Z,96.00
2023-01-26T22:16:53.332Z,95.93
2023-01-26T22:19:20.370Z,96.01
2023-01-26T22:21:50.439Z,96.12
2023-01-26T22:24:18.182Z,95.94
2023-01-26T22:26:45.179Z,96.03
2023-01-26T22:29:13.320Z,95.33
2023-01-26T22:31:40.343Z,95.64
2023-01-26T22:34:07.275Z,95.68
2023-01-26T22:36:34.109Z,95.52
2023-01-26T22:39:01.153Z,94.69
2023-01-26T22:41:30.254Z,94.43
2023-01-26T22:43:59.774Z,94.28
2023-01-26T22:46:29.240Z,94.27
2023-01-26T22:48:58.575Z,94.18
2023-01-26T22:51:29.022Z,94.29
2023-01-26T22:53:58.359Z,94.20
2023-01-26T22:56:26.508Z,94.06
2023-01-26T22:58:59.391Z,94.27
2023-01-26T23:01:32.519Z,94.36
2023-01-26T23:04:01.460Z,93.94
2023-01-26T23:06:29.326Z,94.45
2023-01-26T23:08:58.211Z,94.42
2023-01-26T23:11:28.736Z,94.02
2023-01-26T23:13:58.496Z,93.81
2023-01-26T23:16:26.750Z,94.12
2023-01-26T23:18:56.412Z,93.68
2023-01-26T23:21:24.592Z,93.72
2023-01-26T23:23:51.567Z,93.90
2023-01-26T23:26:18.700Z,93.99
2023-01-26T23:28:45.781Z,94.02
2023-01-26T23:31:15.733Z,93.98
2023-01-26T23:33:43.514Z,93.87
2023-01-26T23:36:12.474Z,93.78
2023-01-26T23:38:39.491Z,93.35
2023-01-26T23:41:08.611Z,93.68
2023-01-26T23:43:36.189Z,93.73
2023-01-26T23:46:05.021Z,94.10
2023-01-26T23:48:32.064Z,94.01
2023-01-26T23:51:18.945Z,93.67
2023-01-26T23:53:45.768Z,94.05
2023-01-26T23:56:17.580Z,93.42
2023-01-26T23:58:45.910Z,93.34
